Time;durP1;ratioP1;P1;durP2;ratioP2;P2;SDS_P1;SDS_P2;PMS_P1;PMS_P2;Temp;Humidity;BMP_temperature;BMP_pressure;BME280_temperature;BME280_humidity;BME280_pressure;Samples;Min_cycle;Max_cycle;Signal;HPM_P1;HPM_P2
2023/06/13 00:01:28;;;;;;;6.50;5.90;;;17.90;99.90;;;;;;5044790;28;20663;-55
2023/06/13 00:03:53;;;;;;;6.07;5.47;;;17.80;99.90;;;;;;5045983;28;20498;-57
2023/06/13 00:06:20;;;;;;;7.17;5.70;;;17.80;99.90;;;;;;5040985;28;20444;-56
2023/06/13 00:08:47;;;;;;;6.40;5.80;;;17.70;99.90;;;;;;5043606;28;20273;-55
2023/06/13 00:11:13;;;;;;;6.20;5.60;;;17.70;99.90;;;;;;5044796;28;20476;-57
2023/06/13 00:13:39;;;;;;;6.10;5.60;;;17.60;99.90;;;;;;5045722;28;20456;-55
2023/06/13 00:16:05;;;;;;;5.50;5.00;;;17.60;99.90;;;;;;5054098;28;20214;-56
2023/06/13 00:18:31;;;;;;;6.40;5.50;;;17.50;99.90;;;;;;5050528;28;20448;-58
2023/06/13 00:20:58;;;;;;;6.67;5.60;;;17.50;99.90;;;;;;5054593;28;20450;-57
2023/06/13 00:23:25;;;;;;;7.70;5.50;;;17.50;99.90;;;;;;5049381;28;20193;-55
2023/06/13 00:25:51;;;;;;;9.13;6.53;;;17.40;99.90;;;;;;5048381;28;20486;-55
2023/06/13 00:28:17;;;;;;;6.07;5.47;;;17.30;99.90;;;;;;5042893;28;20460;-57
2023/06/13 00:30:43;;;;;;;6.97;6.23;;;17.20;99.90;;;;;;5043299;28;20458;-55
2023/06/13 00:33:11;;;;;;;7.27;6.57;;;17.20;99.90;;;;;;5045575;28;20195;-54
2023/06/13 00:35:37;;;;;;;6.67;5.90;;;17.20;99.90;;;;;;5047602;28;20482;-55
2023/06/13 00:38:06;;;;;;;6.73;5.70;;;17.10;99.90;;;;;;5047537;28;20453;-55
2023/06/13 00:40:32;;;;;;;6.80;6.10;;;17.10;99.90;;;;;;5049933;28;20200;-56
2023/06/13 00:42:58;;;;;;;6.50;6.00;;;17.00;99.90;;;;;;5048339;28;20444;-54
2023/06/13 00:45:26;;;;;;;6.63;5.60;;;17.00;99.90;;;;;;5046835;28;20273;-56
2023/06/13 00:48:00;;;;;;;8.47;5.80;;;16.90;99.90;;;;;;5045775;28;20269;-54
2023/06/13 00:50:30;;;;;;;7.10;6.00;;;16.80;99.90;;;;;;5048873;28;20497;-56
2023/06/13 00:52:58;;;;;;;6.73;6.13;;;16.80;99.90;;;;;;5047401;28;20528;-57
2023/06/13 00:55:25;;;;;;;7.87;7.10;;;16.70;99.90;;;;;;5047353;28;20557;-54
2023/06/13 00:57:56;;;;;;;7.97;6.20;;;16.60;99.90;;;;;;5044537;28;20534;-54
2023/06/13 01:00:25;;;;;;;7.53;6.20;;;16.70;99.90;;;;;;5044958;28;20486;-57
2023/06/13 01:03:02;;;;;;;6.43;5.83;;;16.70;99.90;;;;;;5041408;28;20810;-54
2023/06/13 01:05:28;;;;;;;6.53;5.90;;;16.60;99.90;;;;;;5043426;28;20595;-56
2023/06/13 01:07:57;;;;;;;6.40;5.80;;;16.60;99.90;;;;;;5041413;28;20542;-55
2023/06/13 01:10:25;;;;;;;6.20;5.60;;;16.60;99.90;;;;;;5042605;28;20627;-56
2023/06/13 01:13:00;;;;;;;8.43;5.90;;;16.60;99.90;;;;;;5046535;28;21023;-56
2023/06/13 01:15:30;;;;;;;6.33;5.73;;;16.60;99.90;;;;;;5043113;28;20544;-56
2023/06/13 01:17:58;;;;;;;6.67;6.10;;;16.60;99.90;;;;;;5043349;28;20501;-56
2023/06/13 01:20:35;;;;;;;6.33;5.80;;;16.60;99.90;;;;;;5042979;28;20453;-56
2023/06/13 01:23:16;;;;;;;6.47;5.83;;;16.60;99.90;;;;;;5043430;28;20500;-56
2023/06/13 01:26:12;;;;;;;6.80;6.17;;;16.60;99.90;;;;;;5046231;28;20978;-55
2023/06/13 01:28:41;;;;;;;6.60;6.00;;;16.60;99.90;;;;;;5044844;28;20475;-55
2023/06/13 01:31:10;;;;;;;7.30;5.63;;;16.50;99.90;;;;;;5045079;28;20443;-56
2023/06/13 01:33:37;;;;;;;6.67;6.07;;;16.60;99.90;;;;;;5044651;28;20452;-57
2023/06/13 01:36:03;;;;;;;6.10;5.50;;;16.60;99.90;;;;;;5045059;28;20796;-55
2023/06/13 01:38:29;;;;;;;7.30;6.70;;;16.50;99.90;;;;;;5038765;28;20503;-57
2023/06/13 01:40:54;;;;;;;7.93;6.50;;;16.50;99.90;;;;;;5041809;28;20452;-57
2023/06/13 01:43:20;;;;;;;7.50;6.23;;;16.50;99.90;;;;;;5048096;28;20447;-56
2023/06/13 01:45:46;;;;;;;9.10;6.70;;;16.50;99.90;;;;;;5043430;28;20714;-55
2023/06/13 01:48:32;;;;;;;12.83;5.47;;;16.50;99.90;;;;;;5045280;28;20716;-58
2023/06/13 01:51:05;;;;;;;7.17;6.67;;;16.50;99.90;;;;;;5044085;28;20488;-54
2023/06/13 01:53:45;;;;;;;7.27;6.53;;;16.40;99.90;;;;;;5041318;28;20447;-54
2023/06/13 01:56:19;;;;;;;6.50;6.00;;;16.40;99.90;;;;;;5043698;28;20955;-54
2023/06/13 01:59:00;;;;;;;6.60;6.00;;;16.30;99.90;;;;;;5046091;28;20457;-56
2023/06/13 02:01:27;;;;;;;6.10;5.60;;;16.30;99.90;;;;;;5045163;28;20521;-57
2023/06/13 02:03:53;;;;;;;7.67;7.03;;;16.30;99.90;;;;;;5041854;28;20525;-56
2023/06/13 02:06:19;;;;;;;7.63;6.87;;;16.20;99.90;;;;;;5044227;28;20937;-57
2023/06/13 02:08:45;;;;;;;6.83;6.23;;;16.20;99.90;;;;;;5040013;28;20444;-55
2023/06/13 02:11:11;;;;;;;7.43;6.67;;;16.10;99.90;;;;;;5042131;28;20180;-58
2023/06/13 02:13:37;;;;;;;7.70;6.17;;;16.00;99.90;;;;;;5041958;28;20271;-54
2023/06/13 02:16:03;;;;;;;7.40;6.70;;;16.00;99.90;;;;;;5046337;28;20467;-54
2023/06/13 02:18:30;;;;;;;8.67;6.13;;;15.90;99.90;;;;;;5045548;28;20450;-56
2023/06/13 02:20:57;;;;;;;9.60;6.63;;;15.80;99.90;;;;;;5051177;28;20778;-55
2023/06/13 02:23:23;;;;;;;6.80;5.90;;;15.80;99.90;;;;;;5047605;28;20443;-56
2023/06/13 02:25:51;;;;;;;7.60;6.80;;;15.80;99.90;;;;;;5044842;28;20497;-54
2023/06/13 02:28:17;;;;;;;7.07;6.47;;;15.80;99.90;;;;;;5046302;28;20440;-54
2023/06/13 02:30:44;;;;;;;7.20;6.07;;;15.70;99.90;;;;;;5048890;28;20443;-54
2023/06/13 02:33:10;;;;;;;6.77;5.83;;;15.70;99.90;;;;;;5050903;28;20449;-56
2023/06/13 02:35:37;;;;;;;6.67;6.07;;;15.60;99.90;;;;;;5048268;28;20470;-56
2023/06/13 02:38:06;;;;;;;7.40;6.70;;;15.60;99.90;;;;;;5046081;28;20470;-55
2023/06/13 02:40:32;;;;;;;7.63;6.87;;;15.50;99.90;;;;;;5046767;28;20789;-56
2023/06/13 02:43:00;;;;;;;7.17;6.43;;;15.50;99.90;;;;;;5048019;28;20786;-54
2023/06/13 02:45:25;;;;;;;6.87;6.27;;;15.20;99.90;;;;;;5050656;28;20808;-55
2023/06/13 02:47:52;;;;;;;9.93;5.87;;;15.50;99.90;;;;;;5050015;28;20546;-54
2023/06/13 02:50:17;;;;;;;9.03;6.57;;;15.40;99.90;;;;;;5048772;28;20552;-57
2023/06/13 02:52:43;;;;;;;6.93;6.07;;;15.30;99.90;;;;;;5046106;28;20451;-56
2023/06/13 02:55:10;;;;;;;6.63;6.03;;;15.30;99.90;;;;;;5048447;28;20262;-54
2023/06/13 02:57:39;;;;;;;7.10;6.40;;;15.20;99.90;;;;;;5044189;28;20576;-54
2023/06/13 03:00:11;;;;;;;6.73;5.90;;;15.20;99.90;;;;;;5048477;28;20474;-55
2023/06/13 03:02:37;;;;;;;7.30;5.80;;;15.20;99.90;;;;;;5047020;28;20443;-54
2023/06/13 03:05:06;;;;;;;7.97;6.03;;;15.20;99.90;;;;;;5045569;28;20453;-55
2023/06/13 03:07:32;;;;;;;6.87;6.27;;;15.20;99.90;;;;;;5041441;28;20801;-55
2023/06/13 03:10:00;;;;;;;6.57;6.00;;;15.30;99.90;;;;;;5049056;28;20447;-54
2023/06/13 03:12:26;;;;;;;10.07;6.73;;;15.20;99.90;;;;;;5046935;28;20268;-56
2023/06/13 03:14:52;;;;;;;7.93;5.67;;;15.20;99.90;;;;;;5042089;28;20561;-55
2023/06/13 03:17:18;;;;;;;6.90;6.23;;;15.20;99.90;;;;;;5045956;28;20590;-56
2023/06/13 03:19:43;;;;;;;6.23;5.60;;;15.20;99.90;;;;;;5045616;28;20189;-56
2023/06/13 03:22:13;;;;;;;6.60;6.00;;;15.20;99.90;;;;;;5047272;28;20234;-55
2023/06/13 03:24:40;;;;;;;7.03;6.40;;;15.20;99.90;;;;;;5044830;28;20189;-56
2023/06/13 03:27:06;;;;;;;6.20;5.70;;;15.30;99.90;;;;;;5044008;28;20504;-57
2023/06/13 03:29:32;;;;;;;7.90;6.70;;;15.20;99.90;;;;;;5044953;28;21020;-56
2023/06/13 03:31:58;;;;;;;6.47;5.80;;;15.20;99.90;;;;;;5046980;28;20541;-55
2023/06/13 03:34:28;;;;;;;6.13;5.63;;;15.30;99.90;;;;;;5047215;28;20253;-55
2023/06/13 03:36:54;;;;;;;7.27;6.57;;;15.30;99.90;;;;;;5044392;28;20184;-54
2023/06/13 03:39:20;;;;;;;7.37;5.70;;;15.20;99.90;;;;;;5044769;28;21004;-56
2023/06/13 03:41:46;;;;;;;7.70;6.50;;;15.20;99.90;;;;;;5045463;28;20531;-56
2023/06/13 03:44:12;;;;;;;6.30;5.70;;;15.30;99.90;;;;;;5048049;28;20474;-57
2023/06/13 03:46:37;;;;;;;7.40;6.70;;;15.30;99.90;;;;;;5045340;28;20184;-55
2023/06/13 03:49:03;;;;;;;6.50;5.90;;;15.40;99.90;;;;;;5046710;28;20449;-55
2023/06/13 03:51:29;;;;;;;6.93;5.70;;;15.60;99.90;;;;;;5047772;28;20378;-57
2023/06/13 03:53:55;;;;;;;7.80;6.23;;;15.70;99.90;;;;;;5045837;28;20242;-54
2023/06/13 03:56:21;;;;;;;8.40;6.10;;;15.70;99.90;;;;;;5046421;28;20859;-56
2023/06/13 03:58:46;;;;;;;7.70;6.40;;;15.70;99.90;;;;;;5046172;28;20262;-56
2023/06/13 04:01:12;;;;;;;7.17;6.47;;;15.70;99.90;;;;;;5045176;28;20579;-55
2023/06/13 04:03:39;;;;;;;7.57;6.87;;;15.60;99.90;;;;;;5046429;28;20187;-54
2023/06/13 04:06:06;;;;;;;7.17;6.43;;;15.60;99.90;;;;;;5044616;28;20205;-55
2023/06/13 04:08:32;;;;;;;13.43;7.20;;;15.60;99.90;;;;;;5040114;28;20462;-56
2023/06/13 04:10:57;;;;;;;7.03;6.43;;;15.50;99.90;;;;;;5043481;28;20439;-57
2023/06/13 04:13:23;;;;;;;7.10;6.40;;;15.50;99.90;;;;;;5041836;28;20797;-56
2023/06/13 04:15:50;;;;;;;7.70;6.23;;;15.60;99.90;;;;;;5046674;28;20262;-54
2023/06/13 04:18:18;;;;;;;6.77;6.07;;;15.60;99.90;;;;;;5046318;28;20272;-55
2023/06/13 04:20:44;;;;;;;7.30;6.17;;;15.70;99.90;;;;;;5047944;28;20879;-56
2023/06/13 04:23:10;;;;;;;7.60;6.57;;;15.60;99.90;;;;;;5047466;28;20839;-55
2023/06/13 04:25:36;;;;;;;8.67;6.80;;;15.60;99.90;;;;;;5046232;28;20463;-57
2023/06/13 04:28:02;;;;;;;6.80;6.13;;;15.60;99.90;;;;;;5046938;28;20200;-55
2023/06/13 04:30:28;;;;;;;8.00;6.20;;;15.70;99.90;;;;;;5046651;28;20220;-56
2023/06/13 04:32:57;;;;;;;9.60;6.47;;;15.70;99.90;;;;;;5048105;28;20450;-55
2023/06/13 04:35:23;;;;;;;7.23;6.60;;;15.90;99.90;;;;;;5045947;28;20481;-55
2023/06/13 04:37:52;;;;;;;7.07;6.47;;;15.90;99.90;;;;;;5043755;28;20949;-55
2023/06/13 04:40:18;;;;;;;6.93;6.23;;;16.10;99.90;;;;;;5046269;28;20474;-55
2023/06/13 04:42:51;;;;;;;8.50;6.77;;;16.20;99.90;;;;;;5045195;28;20448;-56
2023/06/13 04:45:20;;;;;;;5.97;5.47;;;16.40;99.90;;;;;;5047610;28;20553;-54
2023/06/13 04:47:48;;;;;;;7.23;6.37;;;16.50;99.90;;;;;;5042887;28;20452;-56
2023/06/13 04:50:14;;;;;;;7.43;6.73;;;16.70;99.90;;;;;;5043882;28;21181;-54
2023/06/13 04:52:40;;;;;;;7.50;6.77;;;16.80;99.90;;;;;;5042248;28;20465;-57
2023/06/13 04:55:06;;;;;;;7.00;6.30;;;16.90;99.90;;;;;;5040622;28;20620;-55
2023/06/13 04:57:32;;;;;;;7.20;6.27;;;16.90;99.90;;;;;;5045626;28;20756;-56
2023/06/13 05:00:06;;;;;;;7.33;6.63;;;16.90;99.90;;;;;;5041148;28;20316;-57
2023/06/13 05:02:34;;;;;;;9.90;6.87;;;16.80;99.90;;;;;;5043989;28;20189;-55
2023/06/13 05:05:00;;;;;;;7.53;6.93;;;16.90;99.90;;;;;;5044930;28;20470;-56
2023/06/13 05:07:28;;;;;;;6.97;6.37;;;17.00;99.90;;;;;;5039087;28;20480;-55
2023/06/13 05:09:55;;;;;;;7.93;7.07;;;17.10;99.90;;;;;;5043091;28;20184;-55
2023/06/13 05:12:22;;;;;;;7.30;6.50;;;17.30;99.90;;;;;;5045852;28;20458;-54
2023/06/13 05:14:48;;;;;;;7.00;6.30;;;17.50;99.90;;;;;;5044859;28;20461;-54
2023/06/13 05:17:14;;;;;;;6.97;6.33;;;17.60;99.90;;;;;;5039605;28;20458;-56
2023/06/13 05:19:40;;;;;;;10.53;6.70;;;17.80;99.90;;;;;;5041658;28;20452;-55
2023/06/13 05:22:06;;;;;;;8.17;6.97;;;18.00;99.90;;;;;;5046155;28;21023;-55
2023/06/13 05:24:33;;;;;;;8.40;6.40;;;18.10;99.90;;;;;;5036503;28;20590;-57
2023/06/13 05:26:59;;;;;;;7.73;6.93;;;18.20;99.90;;;;;;5044117;28;20803;-56
2023/06/13 05:29:26;;;;;;;8.07;6.63;;;18.30;99.90;;;;;;5042416;28;20440;-56
2023/06/13 05:31:52;;;;;;;11.40;8.00;;;18.30;99.90;;;;;;5042716;28;20453;-56
2023/06/13 05:34:17;;;;;;;7.10;6.40;;;18.10;99.90;;;;;;5047921;28;20448;-56
2023/06/13 05:36:43;;;;;;;8.47;6.70;;;18.10;99.90;;;;;;5043841;28;20525;-56
2023/06/13 05:39:09;;;;;;;7.50;6.70;;;18.10;99.90;;;;;;5045880;28;20217;-55
2023/06/13 05:41:36;;;;;;;7.47;6.70;;;18.10;99.90;;;;;;5043746;28;20183;-56
2023/06/13 05:44:02;;;;;;;9.00;6.63;;;17.90;99.90;;;;;;5037654;28;20950;-56
2023/06/13 05:46:27;;;;;;;11.70;7.90;;;17.80;99.90;;;;;;5038950;28;20459;-57
2023/06/13 05:48:53;;;;;;;8.73;7.00;;;17.70;99.90;;;;;;5031556;28;20190;-55
2023/06/13 05:51:19;;;;;;;9.83;6.70;;;17.70;99.90;;;;;;5044658;28;20186;-56
2023/06/13 05:53:44;;;;;;;7.73;6.60;;;17.60;99.90;;;;;;5041946;28;20563;-57
2023/06/13 05:56:10;;;;;;;8.17;6.90;;;17.70;99.90;;;;;;5041147;28;21332;-56
2023/06/13 05:58:36;;;;;;;8.53;6.87;;;17.70;99.90;;;;;;5046878;28;20192;-57
2023/06/13 06:01:03;;;;;;;7.77;6.97;;;17.80;99.90;;;;;;5043657;28;20658;-58
2023/06/13 06:03:29;;;;;;;7.60;6.53;;;17.70;99.90;;;;;;5046542;28;20881;-56
2023/06/13 06:05:55;;;;;;;9.07;6.53;;;17.70;99.90;;;;;;5047893;28;20774;-56
2023/06/13 06:08:21;;;;;;;7.30;6.60;;;17.60;99.90;;;;;;5045353;28;20518;-57
2023/06/13 06:10:46;;;;;;;12.63;6.53;;;17.70;99.90;;;;;;5043300;28;20547;-56
2023/06/13 06:13:12;;;;;;;7.53;6.83;;;17.80;99.90;;;;;;5042501;28;20221;-57
2023/06/13 06:15:38;;;;;;;9.60;6.77;;;17.90;99.90;;;;;;5040896;28;20252;-57
2023/06/13 06:18:03;;;;;;;7.80;6.47;;;18.10;99.90;;;;;;5045728;28;20277;-56
2023/06/13 06:20:29;;;;;;;11.30;6.50;;;18.30;99.90;;;;;;5044366;28;20214;-58
2023/06/13 06:22:54;;;;;;;11.43;6.13;;;18.40;99.90;;;;;;5046393;28;20272;-58
2023/06/13 06:25:20;;;;;;;7.70;6.23;;;18.50;99.90;;;;;;5043199;28;20281;-57
2023/06/13 06:27:49;;;;;;;11.40;6.60;;;18.60;99.90;;;;;;5046218;28;20197;-56
2023/06/13 06:30:15;;;;;;;7.83;7.03;;;18.70;99.90;;;;;;5033754;28;20293;-56
2023/06/13 06:32:42;;;;;;;7.30;6.60;;;18.80;99.90;;;;;;5043394;28;20638;-56
2023/06/13 06:35:09;;;;;;;7.90;6.23;;;19.00;99.90;;;;;;5042745;28;20570;-57
2023/06/13 06:37:35;;;;;;;7.17;6.47;;;19.10;99.90;;;;;;5045815;28;20500;-57
2023/06/13 06:40:01;;;;;;;8.10;6.20;;;19.30;99.90;;;;;;5044319;28;20476;-56
2023/06/13 06:42:26;;;;;;;12.40;6.87;;;19.50;99.90;;;;;;5041731;28;20196;-56
2023/06/13 06:44:52;;;;;;;13.70;6.97;;;19.70;99.90;;;;;;5042512;28;20948;-58
2023/06/13 06:47:18;;;;;;;6.93;6.17;;;19.90;99.90;;;;;;5045398;28;20667;-58
2023/06/13 06:49:45;;;;;;;6.50;5.90;;;20.00;99.90;;;;;;5051917;28;20200;-56
2023/06/13 06:52:10;;;;;;;6.33;5.80;;;20.10;99.90;;;;;;5041639;28;20662;-57
2023/06/13 06:54:36;;;;;;;7.00;5.73;;;20.10;99.90;;;;;;5042130;28;20573;-56
2023/06/13 06:57:05;;;;;;;7.50;5.90;;;20.20;99.90;;;;;;5043488;28;20195;-56
2023/06/13 06:59:31;;;;;;;7.03;6.33;;;20.40;99.90;;;;;;5041840;28;20328;-57
2023/06/13 07:01:57;;;;;;;6.70;5.80;;;20.60;99.90;;;;;;5048358;28;20446;-59
2023/06/13 07:04:23;;;;;;;6.83;5.90;;;20.70;99.90;;;;;;5048908;28;20740;-56
2023/06/13 07:06:50;;;;;;;14.50;6.80;;;20.80;99.90;;;;;;5044966;28;20529;-56
2023/06/13 07:09:16;;;;;;;11.87;5.43;;;20.90;99.90;;;;;;5046361;28;21073;-58
2023/06/13 07:11:41;;;;;;;7.93;5.60;;;21.10;99.90;;;;;;5048073;28;20460;-57
2023/06/13 07:14:08;;;;;;;6.37;5.77;;;21.50;99.90;;;;;;5044296;28;20192;-58
2023/06/13 07:16:33;;;;;;;7.80;6.37;;;21.60;99.90;;;;;;5047385;28;20301;-57
2023/06/13 07:18:59;;;;;;;8.70;5.80;;;21.90;99.90;;;;;;5047966;28;20884;-57
2023/06/13 07:21:25;;;;;;;7.87;5.60;;;21.90;99.90;;;;;;5042146;28;20698;-57
2023/06/13 07:23:51;;;;;;;6.37;5.43;;;21.90;99.90;;;;;;5047202;28;20245;-57
2023/06/13 07:26:17;;;;;;;8.57;6.50;;;22.10;99.90;;;;;;5051981;28;20848;-58
2023/06/13 07:28:43;;;;;;;5.93;5.43;;;22.20;99.90;;;;;;5047352;28;20272;-58
2023/06/13 07:31:08;;;;;;;8.63;6.13;;;22.00;99.90;;;;;;5046383;28;20203;-56
2023/06/13 07:33:34;;;;;;;11.13;6.40;;;21.90;99.90;;;;;;5049723;28;20657;-56
2023/06/13 07:36:00;;;;;;;6.50;5.70;;;21.80;99.90;;;;;;5047717;28;20223;-57
2023/06/13 07:38:26;;;;;;;9.83;6.23;;;21.90;99.90;;;;;;5048885;28;20212;-58
2023/06/13 07:40:53;;;;;;;6.43;5.37;;;22.00;99.90;;;;;;5046697;28;20451;-56
2023/06/13 07:43:19;;;;;;;8.00;5.80;;;22.30;99.90;;;;;;5047701;28;20196;-57
2023/06/13 07:45:46;;;;;;;6.97;5.87;;;22.40;99.90;;;;;;5047058;28;20468;-57
2023/06/13 07:48:13;;;;;;;6.10;5.50;;;22.30;99.90;;;;;;5044783;28;20549;-57
2023/06/13 07:50:41;;;;;;;5.60;5.10;;;22.40;99.90;;;;;;5050823;28;20456;-57
2023/06/13 07:53:08;;;;;;;11.80;6.40;;;22.80;99.90;;;;;;5044819;28;20952;-56
2023/06/13 07:55:34;;;;;;;6.60;5.77;;;23.10;99.90;;;;;;5047852;28;20615;-57
2023/06/13 07:58:00;;;;;;;12.20;6.30;;;23.00;99.90;;;;;;5048871;28;20547;-56
2023/06/13 08:00:25;;;;;;;10.30;5.77;;;23.20;99.90;;;;;;5042715;28;20218;-55
2023/06/13 08:02:51;;;;;;;18.30;6.90;;;23.30;99.90;;;;;;5047881;28;20210;-56
2023/06/13 08:05:17;;;;;;;6.13;5.53;;;23.70;99.90;;;;;;5047152;28;20283;-57
2023/06/13 08:07:42;;;;;;;6.40;4.93;;;24.30;99.90;;;;;;5049036;28;20285;-57
2023/06/13 08:10:08;;;;;;;8.10;4.93;;;24.70;99.90;;;;;;5044809;28;20188;-57
2023/06/13 08:12:34;;;;;;;6.83;5.57;;;25.00;99.90;;;;;;5045873;28;20241;-57
2023/06/13 08:15:01;;;;;;;9.20;5.20;;;25.30;99.90;;;;;;5029638;28;20467;-57
2023/06/13 08:17:26;;;;;;;8.73;5.47;;;25.20;99.90;;;;;;5041029;28;20567;-57
2023/06/13 08:19:52;;;;;;;11.00;5.60;;;25.20;99.90;;;;;;5047282;28;20504;-57
2023/06/13 08:22:18;;;;;;;13.73;6.13;;;25.30;99.90;;;;;;5045175;28;20576;-56
2023/06/13 08:24:47;;;;;;;5.90;5.20;;;25.20;99.90;;;;;;5044013;28;20201;-56
2023/06/13 08:27:17;;;;;;;6.03;5.27;;;25.40;99.90;;;;;;5031133;28;20283;-58
2023/06/13 08:29:43;;;;;;;11.83;5.80;;;25.70;99.90;;;;;;5047353;28;20448;-58
2023/06/13 08:32:09;;;;;;;8.53;5.03;;;26.10;99.90;;;;;;5048989;28;20451;-58
2023/06/13 08:34:34;;;;;;;4.97;4.57;;;26.20;99.90;;;;;;5050196;28;20270;-57
2023/06/13 08:37:00;;;;;;;6.40;4.97;;;26.50;99.90;;;;;;5048307;28;20951;-56
2023/06/13 08:39:26;;;;;;;7.40;5.10;;;25.80;99.90;;;;;;5049196;28;20190;-57
2023/06/13 08:41:54;;;;;;;6.03;4.57;;;25.70;99.90;;;;;;5043792;28;20240;-57
2023/06/13 08:44:21;;;;;;;5.67;4.90;;;26.10;99.90;;;;;;5045323;28;20195;-57
2023/06/13 08:46:47;;;;;;;5.77;4.63;;;26.40;99.90;;;;;;5048394;28;20480;-58
2023/06/13 08:49:12;;;;;;;7.87;4.50;;;26.30;99.90;;;;;;5048283;28;20489;-57
2023/06/13 08:51:38;;;;;;;9.87;3.93;;;26.40;99.90;;;;;;5044077;28;20187;-57
2023/06/13 08:54:05;;;;;;;6.87;4.20;;;26.70;99.90;;;;;;5048132;28;20240;-57
2023/06/13 08:56:40;;;;;;;5.17;4.57;;;26.40;99.90;;;;;;5043089;28;20698;-57
2023/06/13 08:59:13;;;;;;;7.30;6.60;;;26.00;99.90;;;;;;5047864;28;20450;-57
2023/06/13 09:01:40;;;;;;;5.33;4.83;;;26.00;99.90;;;;;;5048796;28;20492;-57
2023/06/13 09:04:08;;;;;;;5.30;4.90;;;25.90;99.90;;;;;;5039823;28;20446;-58
2023/06/13 09:06:37;;;;;;;4.93;4.53;;;25.80;99.90;;;;;;5048133;28;20485;-57
2023/06/13 09:09:03;;;;;;;7.43;4.83;;;25.80;99.90;;;;;;5040730;28;21010;-57
2023/06/13 09:11:29;;;;;;;6.77;5.27;;;26.20;99.90;;;;;;5049130;28;20481;-57
2023/06/13 09:14:00;;;;;;;4.80;4.40;;;26.80;99.90;;;;;;5053836;28;20808;-58
2023/06/13 09:16:27;;;;;;;6.83;4.80;;;27.20;99.90;;;;;;5048284;28;20469;-57
2023/06/13 09:18:53;;;;;;;5.57;5.07;;;27.10;99.90;;;;;;5046724;28;20464;-58
2023/06/13 09:21:20;;;;;;;5.57;4.77;;;27.10;99.90;;;;;;5047043;28;20452;-57
2023/06/13 09:23:48;;;;;;;6.27;5.10;;;27.30;99.90;;;;;;5048184;28;20453;-57
2023/06/13 09:26:17;;;;;;;5.27;4.63;;;27.10;99.90;;;;;;5046457;28;20450;-57
2023/06/13 09:28:45;;;;;;;4.83;4.30;;;26.90;99.90;;;;;;5047671;28;20486;-58
2023/06/13 09:31:11;;;;;;;5.80;5.00;;;26.90;99.90;;;;;;5047878;28;20442;-57
2023/06/13 09:33:37;;;;;;;9.20;5.20;;;27.10;99.90;;;;;;5047640;28;20841;-57
2023/06/13 09:36:05;;;;;;;4.83;4.43;;;27.30;99.90;;;;;;5048260;28;20472;-58
2023/06/13 09:38:36;;;;;;;5.63;5.10;;;27.70;99.90;;;;;;5047327;28;20529;-56
2023/06/13 09:41:04;;;;;;;6.10;4.87;;;27.50;99.90;;;;;;5048068;28;20956;-57
2023/06/13 09:43:30;;;;;;;6.47;5.10;;;27.30;99.90;;;;;;5047080;28;20771;-58
2023/06/13 09:45:56;;;;;;;5.07;4.57;;;27.20;99.90;;;;;;5047566;28;20458;-57
2023/06/13 09:48:22;;;;;;;9.13;5.17;;;27.10;99.90;;;;;;5044364;28;20457;-58
2023/06/13 09:50:50;;;;;;;4.97;4.47;;;27.10;99.90;;;;;;5044701;28;20182;-57
2023/06/13 09:53:17;;;;;;;6.40;4.70;;;27.10;99.90;;;;;;5046263;28;20449;-57
2023/06/13 09:55:43;;;;;;;6.80;4.80;;;26.80;99.90;;;;;;5046863;28;20979;-58
2023/06/13 09:58:09;;;;;;;5.63;4.30;;;26.50;99.90;;;;;;5047640;28;20442;-58
2023/06/13 10:00:35;;;;;;;6.43;4.30;;;26.40;99.90;;;;;;5046607;28;20223;-57
2023/06/13 10:03:02;;;;;;;5.10;4.60;;;26.30;99.90;;;;;;5041116;28;20202;-57
2023/06/13 10:05:28;;;;;;;5.57;4.67;;;26.10;99.90;;;;;;5046382;28;20445;-57
2023/06/13 10:07:54;;;;;;;4.57;4.10;;;25.90;99.90;;;;;;5038446;28;20813;-58
2023/06/13 10:10:20;;;;;;;5.10;4.60;;;25.90;99.90;;;;;;5038731;28;20493;-58
2023/06/13 10:12:51;;;;;;;4.80;4.30;;;25.70;99.90;;;;;;5043376;28;20478;-57
2023/06/13 10:15:42;;;;;;;5.37;4.83;;;25.70;99.90;;;;;;5045737;28;20244;-58
2023/06/13 10:18:14;;;;;;;10.90;4.50;;;25.60;99.90;;;;;;5053470;28;20449;-58
2023/06/13 10:20:40;;;;;;;5.17;4.67;;;25.40;99.90;;;;;;5049536;28;20429;-58
2023/06/13 10:23:13;;;;;;;8.33;5.00;;;25.40;99.90;;;;;;5053553;28;20484;-58
2023/06/13 10:25:40;;;;;;;5.33;4.83;;;25.20;99.90;;;;;;5050240;28;20510;-58
2023/06/13 10:28:39;;;;;;;5.93;4.63;;;25.20;99.90;;;;;;5050994;28;20612;-57
2023/06/13 10:31:37;;;;;;;5.60;4.57;;;25.10;99.90;;;;;;5038637;28;20469;-57
2023/06/13 10:34:14;;;;;;;4.90;4.50;;;25.10;99.90;;;;;;5045022;28;20450;-57
2023/06/13 10:37:00;;;;;;;7.07;4.63;;;25.50;99.90;;;;;;5045623;28;21074;-57
2023/06/13 10:39:42;;;;;;;10.53;4.97;;;25.80;99.90;;;;;;5049396;28;20475;-58
2023/06/13 10:42:19;;;;;;;6.20;5.10;;;25.80;99.90;;;;;;5049569;28;20477;-58
2023/06/13 10:45:07;;;;;;;6.17;5.60;;;26.10;99.90;;;;;;5047540;28;20452;-58
2023/06/13 10:47:33;;;;;;;5.40;4.80;;;26.20;99.90;;;;;;5046236;28;20810;-57
2023/06/13 10:50:01;;;;;;;5.40;4.90;;;26.60;99.90;;;;;;5050180;28;20537;-58
2023/06/13 10:52:30;;;;;;;4.87;4.40;;;26.80;99.90;;;;;;5049158;28;20482;-58
2023/06/13 10:54:58;;;;;;;12.43;6.33;;;26.80;99.90;;;;;;5049801;28;20854;-58
2023/06/13 10:57:50;;;;;;;6.60;5.90;;;26.60;99.90;;;;;;5051842;28;20551;-58
2023/06/13 11:00:26;;;;;;;5.27;4.67;;;26.80;99.90;;;;;;5050700;28;20475;-58
2023/06/13 11:03:06;;;;;;;4.80;4.30;;;27.10;99.90;;;;;;5049750;28;20792;-57
2023/06/13 11:05:49;;;;;;;5.70;5.20;;;27.10;99.90;;;;;;5047999;28;20458;-57
2023/06/13 11:08:16;;;;;;;5.47;4.97;;;27.00;99.90;;;;;;5050742;28;20450;-57
2023/06/13 11:10:46;;;;;;;6.33;5.73;;;27.10;99.90;;;;;;5049586;28;20954;-57
2023/06/13 11:13:27;;;;;;;5.83;5.23;;;27.00;99.90;;;;;;5047599;28;20452;-58
2023/06/13 11:15:55;;;;;;;8.53;6.00;;;27.00;99.90;;;;;;5048531;28;20523;-56
2023/06/13 11:18:21;;;;;;;6.23;5.63;;;26.70;99.90;;;;;;5049025;28;20979;-57
2023/06/13 11:20:57;;;;;;;5.37;4.93;;;26.50;99.90;;;;;;5046219;28;20538;-58
2023/06/13 11:23:23;;;;;;;12.40;5.53;;;26.30;99.90;;;;;;5042302;28;20185;-55
